createdAt,value
2024-03-05T00:00:43.577Z,52.65
2024-03-05T00:01:45.183Z,60.85
2024-03-05T00:02:47.731Z,51.97
2024-03-05T00:03:50.788Z,51.08
2024-03-05T00:04:53.473Z,58.25
2024-03-05T00:05:55.693Z,60.08
2024-03-05T00:06:58.286Z,50.88
2024-03-05T00:08:00.044Z,68.72
2024-03-05T00:09:02.656Z,53.90
2024-03-05T00:10:04.699Z,51.47
2024-03-05T00:11:08.802Z,51.88
2024-03-05T00:12:12.790Z,50.08
2024-03-05T00:13:15.545Z,58.45
2024-03-05T00:14:17.112Z,53.42
2024-03-05T00:15:19.852Z,57.03
2024-03-05T00:16:21.506Z,53.92
2024-03-05T00:17:24.711Z,58.45
2024-03-05T00:18:27.307Z,52.97
2024-03-05T00:19:30.324Z,56.85
2024-03-05T00:20:33.166Z,48.35
2024-03-05T00:21:34.726Z,48.53
2024-03-05T00:22:37.340Z,48.17
2024-03-05T00:23:39.009Z,52.15
2024-03-05T00:24:41.553Z,47.72
2024-03-05T00:25:43.410Z,50.85
2024-03-05T00:26:45.052Z,46.95
2024-03-05T00:27:49.153Z,44.65
2024-03-05T00:28:50.943Z,46.97
2024-03-05T00:29:53.637Z,48.63
2024-03-05T00:30:55.205Z,58.50
2024-03-05T00:31:56.835Z,49.22
2024-03-05T00:33:00.039Z,48.08
2024-03-05T00:34:01.719Z,59.42
2024-03-05T00:35:06.652Z,44.35
2024-03-05T00:36:09.015Z,52.35
2024-03-05T00:37:11.562Z,55.88
2024-03-05T00:38:18.671Z,54.60
2024-03-05T00:39:27.716Z,58.25
2024-03-05T00:40:31.033Z,48.33
2024-03-05T00:41:33.612Z,50.13
2024-03-05T00:42:35.323Z,51.55
2024-03-05T00:43:37.865Z,44.15
2024-03-05T00:44:39.489Z,47.72
2024-03-05T00:45:43.899Z,54.22
2024-03-05T00:46:45.669Z,44.60
2024-03-05T00:47:47.499Z,48.05
2024-03-05T00:48:50.681Z,46.22
2024-03-05T00:49:52.833Z,46.42
2024-03-05T00:50:56.775Z,49.67
2024-03-05T00:51:58.368Z,41.00
2024-03-05T00:53:01.027Z,43.03
2024-03-05T00:54:02.738Z,41.00
2024-03-05T00:55:08.588Z,43.65
2024-03-05T00:56:10.386Z,45.47
2024-03-05T00:57:13.976Z,43.78
2024-03-05T00:58:15.585Z,42.85
2024-03-05T00:59:18.338Z,49.97
2024-03-05T01:00:20.949Z,53.83
2024-03-05T01:01:23.697Z,53.35
2024-03-05T01:02:25.484Z,51.97
2024-03-05T01:03:28.078Z,54.63
2024-03-05T01:04:31.033Z,48.97
2024-03-05T01:05:33.699Z,43.75
2024-03-05T01:06:36.812Z,47.10
2024-03-05T01:07:39.482Z,40.22
2024-03-05T01:08:41.238Z,41.80
2024-03-05T01:09:43.912Z,43.97
2024-03-05T01:10:46.994Z,41.75
2024-03-05T01:11:49.811Z,41.40
2024-03-05T01:12:51.525Z,42.13
2024-03-05T01:13:54.649Z,41.50
2024-03-05T01:14:56.642Z,50.08
2024-03-05T01:15:58.426Z,39.72
2024-03-05T01:17:01.001Z,42.45
2024-03-05T01:18:02.876Z,74.72
2024-03-05T01:19:05.543Z,43.28
2024-03-05T01:20:16.609Z,46.05
2024-03-05T01:21:19.160Z,54.85
2024-03-05T01:22:22.528Z,49.00
2024-03-05T01:23:25.659Z,63.50
2024-03-05T01:24:27.232Z,55.70
2024-03-05T01:25:29.876Z,48.53
2024-03-05T01:26:31.565Z,45.35
2024-03-05T01:27:34.608Z,37.10
2024-03-05T01:28:36.271Z,37.55
2024-03-05T01:29:41.533Z,37.70
2024-03-05T01:30:44.574Z,40.63
2024-03-05T01:31:47.175Z,52.40
2024-03-05T01:32:49.764Z,52.58
2024-03-05T01:33:52.552Z,39.72
2024-03-05T01:34:56.740Z,40.70
2024-03-05T01:35:59.365Z,51.03
2024-03-05T01:37:00.984Z,38.83
2024-03-05T01:38:05.293Z,61.72
2024-03-05T01:39:06.854Z,48.33
2024-03-05T01:40:10.928Z,44.80
2024-03-05T01:41:12.616Z,44.58
2024-03-05T01:42:15.264Z,40.00
2024-03-05T01:43:17.930Z,44.25
2024-03-05T01:44:20.577Z,56.50
2024-03-05T01:45:22.203Z,41.78
2024-03-05T01:46:25.666Z,44.65
2024-03-05T01:47:27.990Z,40.72
2024-03-05T01:48:31.312Z,59.25
2024-03-05T01:49:34.639Z,47.60
2024-03-05T01:50:37.428Z,38.75
2024-03-05T01:51:39.337Z,39.25
2024-03-05T01:52:42.011Z,38.70
2024-03-05T01:53:46.365Z,50.45
2024-03-05T01:54:49.314Z,36.38
2024-03-05T01:55:54.463Z,40.10
2024-03-05T01:57:00.920Z,43.13
2024-03-05T01:58:04.906Z,61.22
2024-03-05T01:59:07.584Z,38.40
2024-03-05T02:00:10.809Z,40.38
2024-03-05T02:01:14.844Z,50.30
2024-03-05T02:02:16.859Z,40.83
2024-03-05T02:03:19.751Z,48.72
2024-03-05T02:04:22.234Z,50.20
2024-03-05T02:05:25.140Z,39.97
2024-03-05T02:06:28.106Z,49.28
2024-03-05T02:07:31.245Z,44.72
2024-03-05T02:08:32.843Z,68.25
2024-03-05T02:09:36.767Z,44.42
2024-03-05T02:10:38.922Z,37.45
2024-03-05T02:11:52.088Z,48.67
2024-03-05T02:12:58.297Z,41.55
2024-03-05T02:14:01.610Z,54.90
2024-03-05T02:15:05.332Z,41.05
2024-03-05T02:16:08.168Z,43.88
2024-03-05T02:17:10.039Z,36.80
2024-03-05T02:18:13.123Z,45.20
2024-03-05T02:19:15.796Z,44.92
2024-03-05T02:20:18.404Z,42.65
2024-03-05T02:21:22.942Z,44.78
2024-03-05T02:22:24.713Z,51.65
2024-03-05T02:23:27.306Z,54.03
2024-03-05T02:24:29.216Z,50.15
2024-03-05T02:25:32.529Z,48.17
2024-03-05T02:26:34.733Z,44.17
2024-03-05T02:27:38.585Z,37.28
2024-03-05T02:28:40.641Z,40.40
2024-03-05T02:29:43.845Z,42.05
2024-03-05T02:30:45.721Z,45.10
2024-03-05T02:31:48.495Z,43.08
2024-03-05T02:32:50.406Z,49.05
2024-03-05T02:33:54.984Z,46.72
2024-03-05T02:34:56.904Z,48.83
2024-03-05T02:35:59.341Z,48.33
2024-03-05T02:37:04.702Z,40.58
2024-03-05T02:38:06.861Z,67.25
2024-03-05T02:39:10.895Z,46.83
2024-03-05T02:40:14.719Z,41.22
2024-03-05T02:41:17.691Z,42.22
2024-03-05T02:42:19.286Z,47.35
2024-03-05T02:43:22.747Z,50.38
2024-03-05T02:44:24.449Z,53.33
2024-03-05T02:45:27.073Z,47.33
2024-03-05T02:46:29.939Z,52.67
2024-03-05T02:47:32.333Z,48.47
2024-03-05T02:48:34.889Z,79.80
2024-03-05T02:49:37.839Z,43.63
2024-03-05T02:50:40.735Z,44.28
2024-03-05T02:51:42.531Z,42.42
2024-03-05T02:52:46.545Z,43.40
2024-03-05T02:53:48.152Z,40.15
2024-03-05T02:54:50.716Z,40.67
2024-03-05T02:55:52.497Z,42.25
2024-03-05T02:56:55.138Z,42.95
2024-03-05T02:57:56.806Z,57.88
2024-03-05T02:58:59.500Z,40.53
2024-03-05T03:00:01.137Z,40.28
2024-03-05T03:01:04.054Z,41.10
2024-03-05T03:02:06.271Z,45.95
2024-03-05T03:03:09.947Z,41.83
2024-03-05T03:04:11.689Z,47.83
2024-03-05T03:05:15.469Z,48.38
2024-03-05T03:06:17.513Z,40.47
2024-03-05T03:07:20.133Z,45.90
2024-03-05T03:08:23.124Z,67.47
2024-03-05T03:09:25.665Z,62.75
2024-03-05T03:10:27.362Z,47.95
2024-03-05T03:11:29.975Z,52.45
2024-03-05T03:12:32.550Z,51.90
2024-03-05T03:13:35.717Z,46.22
2024-03-05T03:14:37.309Z,43.65
2024-03-05T03:15:38.964Z,39.42
2024-03-05T03:16:44.597Z,41.58
2024-03-05T03:17:46.302Z,47.80
2024-03-05T03:18:47.932Z,39.70
2024-03-05T03:19:50.858Z,44.17
2024-03-05T03:20:52.501Z,41.88
2024-03-05T03:21:55.068Z,40.67
2024-03-05T03:22:56.731Z,43.25
2024-03-05T03:24:00.690Z,39.08
2024-03-05T03:25:02.320Z,39.25
2024-03-05T03:26:05.337Z,45.13
2024-03-05T03:27:07.164Z,40.22
2024-03-05T03:28:09.817Z,47.55
2024-03-05T03:29:12.435Z,40.92
2024-03-05T03:30:21.143Z,45.13
2024-03-05T03:31:23.190Z,43.45
2024-03-05T03:32:26.024Z,55.60
2024-03-05T03:33:27.904Z,45.30
2024-03-05T03:34:30.772Z,45.33
2024-03-05T03:35:32.417Z,52.95
2024-03-05T03:36:34.536Z,45.72
2024-03-05T03:37:37.987Z,46.78
2024-03-05T03:38:39.931Z,39.08
2024-03-05T03:39:45.016Z,40.22
2024-03-05T03:40:46.838Z,43.35
2024-03-05T03:41:50.214Z,41.40
2024-03-05T03:42:52.434Z,46.95
2024-03-05T03:43:55.238Z,43.35
2024-03-05T03:44:57.567Z,46.78
2024-03-05T03:46:00.099Z,47.53
2024-03-05T03:47:01.732Z,46.47
2024-03-05T03:48:04.168Z,62.33
2024-03-05T03:49:06.997Z,41.25
2024-03-05T03:50:09.500Z,59.92
2024-03-05T03:51:12.050Z,45.33
2024-03-05T03:52:14.242Z,44.17
2024-03-05T03:53:16.898Z,52.05
2024-03-05T03:54:18.513Z,45.28
2024-03-05T03:55:22.464Z,50.63
2024-03-05T03:56:24.120Z,48.28
2024-03-05T03:57:27.108Z,53.65
2024-03-05T03:58:28.824Z,62.03
2024-03-05T03:59:31.387Z,48.50
2024-03-05T04:00:33.874Z,49.10
2024-03-05T04:01:37.856Z,58.30
2024-03-05T04:02:39.504Z,46.85
2024-03-05T04:03:42.070Z,44.42
2024-03-05T04:04:44.021Z,45.72
2024-03-05T04:05:45.863Z,47.70
2024-03-05T04:06:48.904Z,43.55
2024-03-05T04:07:50.557Z,44.50
2024-03-05T04:08:53.579Z,44.08
2024-03-05T04:09:55.198Z,46.72
2024-03-05T04:10:59.292Z,44.20
2024-03-05T04:12:00.990Z,42.60
2024-03-05T04:13:04.238Z,46.60
2024-03-05T04:14:06.272Z,43.53
2024-03-05T04:15:10.299Z,45.15
2024-03-05T04:16:12.226Z,48.65
2024-03-05T04:17:15.239Z,52.15
2024-03-05T04:18:17.887Z,45.17
2024-03-05T04:19:19.517Z,48.97
2024-03-05T04:20:22.170Z,44.90
2024-03-05T04:21:24.461Z,46.78
2024-03-05T04:22:27.164Z,54.78
2024-03-05T04:23:28.920Z,54.22
2024-03-05T04:24:32.182Z,53.47
2024-03-05T04:25:40.652Z,50.88
2024-03-05T04:26:49.420Z,45.20
2024-03-05T04:27:51.211Z,46.33
2024-03-05T04:28:55.946Z,44.72
2024-03-05T04:29:58.857Z,53.78
2024-03-05T04:31:09.011Z,57.72
2024-03-05T04:32:10.703Z,44.67
2024-03-05T04:33:16.746Z,44.28
2024-03-05T04:34:20.319Z,47.22
2024-03-05T04:35:23.541Z,44.20
2024-03-05T04:36:26.229Z,54.28
2024-03-05T04:37:29.834Z,45.75
2024-03-05T04:38:31.793Z,53.75
2024-03-05T04:39:34.355Z,41.00
2024-03-05T04:40:36.674Z,43.95
2024-03-05T04:41:39.625Z,26.70
2024-03-05T04:42:42.560Z,34.47
2024-03-05T04:43:45.182Z,18.85
2024-03-05T04:44:46.776Z,22.48
2024-03-05T04:45:49.006Z,28.23
2024-03-05T04:46:51.619Z,25.88
2024-03-05T04:47:53.335Z,35.92
2024-03-05T04:48:56.372Z,25.23
2024-03-05T04:49:58.875Z,38.08
2024-03-05T04:51:02.262Z,29.85
2024-03-05T04:52:04.231Z,28.90
2024-03-05T04:53:06.889Z,32.05
2024-03-05T04:54:11.153Z,24.70
2024-03-05T04:55:14.288Z,23.40
2024-03-05T04:56:15.857Z,27.17
2024-03-05T04:57:18.424Z,13.77
2024-03-05T04:58:21.388Z,13.85
2024-03-05T04:59:24.082Z,8.73
2024-03-05T05:00:26.364Z,16.30
2024-03-05T05:01:29.467Z,14.57
2024-03-05T05:02:31.114Z,9.90
2024-03-05T05:03:33.695Z,19.02
2024-03-05T05:04:38.878Z,23.73
2024-03-05T05:05:41.938Z,20.20
2024-03-05T05:06:43.517Z,23.15
2024-03-05T05:07:46.392Z,18.52
2024-03-05T05:08:50.171Z,15.27
2024-03-05T05:09:51.781Z,18.65
2024-03-05T05:10:54.411Z,15.20
2024-03-05T05:11:56.062Z,15.48
2024-03-05T05:12:57.984Z,13.52
2024-03-05T05:14:02.113Z,19.35
2024-03-05T05:15:04.436Z,18.40
2024-03-05T05:16:09.467Z,15.27
2024-03-05T05:17:13.620Z,23.83
2024-03-05T05:18:16.250Z,21.88
2024-03-05T05:19:17.995Z,24.33
2024-03-05T05:20:19.921Z,20.90
2024-03-05T05:21:23.205Z,28.75
2024-03-05T05:22:24.797Z,28.20
2024-03-05T05:23:27.344Z,39.00
2024-03-05T05:24:29.005Z,36.35
2024-03-05T05:25:30.652Z,39.72
2024-03-05T05:26:33.824Z,35.95
2024-03-05T05:27:36.278Z,34.80
2024-03-05T05:28:38.912Z,47.28
2024-03-05T05:29:42.806Z,35.72
2024-03-05T05:30:45.478Z,34.38
2024-03-05T05:31:47.472Z,40.80
2024-03-05T05:32:50.255Z,33.97
2024-03-05T05:33:51.952Z,38.40
2024-03-05T05:34:54.547Z,37.78
2024-03-05T05:35:56.123Z,45.10
2024-03-05T05:36:58.987Z,39.17
2024-03-05T05:38:00.753Z,60.95
2024-03-05T05:39:03.392Z,44.20
2024-03-05T05:40:06.629Z,40.45
2024-03-05T05:41:09.481Z,39.50
2024-03-05T05:42:13.177Z,43.35
2024-03-05T05:43:15.859Z,39.42
2024-03-05T05:44:17.655Z,41.08
2024-03-05T05:45:23.714Z,40.28
2024-03-05T05:46:26.156Z,42.15
2024-03-05T05:47:28.570Z,39.88
2024-03-05T05:48:32.859Z,52.20
2024-03-05T05:49:34.551Z,52.28
2024-03-05T05:50:37.709Z,60.92
2024-03-05T05:51:39.461Z,50.70
2024-03-05T05:52:41.152Z,50.05
2024-03-05T05:53:45.390Z,55.70
2024-03-05T05:54:48.898Z,53.22
2024-03-05T05:55:50.466Z,54.28
2024-03-05T05:56:52.984Z,51.00
2024-03-05T05:57:55.467Z,66.88
2024-03-05T05:58:58.083Z,50.33
2024-03-05T05:59:59.773Z,45.78
2024-03-05T06:01:07.007Z,52.22
2024-03-05T06:02:09.971Z,42.17
2024-03-05T06:03:13.680Z,44.60
2024-03-05T06:04:16.497Z,55.72
2024-03-05T06:05:18.879Z,48.33
2024-03-05T06:06:21.619Z,44.20
2024-03-05T06:07:25.390Z,50.53
2024-03-05T06:08:28.248Z,49.55
2024-03-05T06:09:35.002Z,55.85
2024-03-05T06:10:37.586Z,59.03
2024-03-05T06:11:40.003Z,59.58
2024-03-05T06:12:42.665Z,57.17
2024-03-05T06:13:44.568Z,56.30
2024-03-05T06:14:47.196Z,56.58
2024-03-05T06:15:50.945Z,47.47
2024-03-05T06:16:54.987Z,40.83
2024-03-05T06:17:57.103Z,66.30
2024-03-05T06:18:59.885Z,42.42
2024-03-05T06:20:01.509Z,40.13
2024-03-05T06:21:04.498Z,41.70
2024-03-05T06:22:08.291Z,43.40
2024-03-05T06:23:13.084Z,40.00
2024-03-05T06:24:14.827Z,39.05
2024-03-05T06:25:18.172Z,41.90
2024-03-05T06:26:20.808Z,40.15
2024-03-05T06:27:22.526Z,35.58
2024-03-05T06:28:25.126Z,36.78
2024-03-05T06:29:26.744Z,40.50
2024-03-05T06:30:29.520Z,33.65
2024-03-05T06:31:31.172Z,41.72
2024-03-05T06:32:38.620Z,44.13
2024-03-05T06:33:40.202Z,40.08
2024-03-05T06:34:43.551Z,32.45
2024-03-05T06:35:46.417Z,41.50
2024-03-05T06:36:54.612Z,38.72
2024-03-05T06:37:58.604Z,51.50
2024-03-05T06:39:01.803Z,41.90
2024-03-05T06:40:07.803Z,39.17
2024-03-05T06:41:12.294Z,35.92
2024-03-05T06:42:14.737Z,37.10
2024-03-05T06:43:22.085Z,43.78
2024-03-05T06:44:26.732Z,41.25
2024-03-05T06:45:29.384Z,39.13
2024-03-05T06:46:33.160Z,48.95
2024-03-05T06:47:40.396Z,54.75
2024-03-05T06:48:48.810Z,49.97
2024-03-05T06:49:55.307Z,43.45
2024-03-05T06:51:01.501Z,38.03
2024-03-05T06:52:18.335Z,35.60
2024-03-05T06:53:38.419Z,50.00
2024-03-05T06:54:58.761Z,45.47
2024-03-05T06:56:19.143Z,39.10
2024-03-05T06:57:21.733Z,37.67
2024-03-05T06:58:24.123Z,41.83
2024-03-05T06:59:26.701Z,50.83
2024-03-05T07:00:28.295Z,48.17
2024-03-05T07:01:33.246Z,48.90
2024-03-05T07:02:36.392Z,50.17
2024-03-05T07:03:40.189Z,55.65
2024-03-05T07:04:41.851Z,51.10
2024-03-05T07:05:44.572Z,54.05
2024-03-05T07:06:46.187Z,56.92
2024-03-05T07:07:48.820Z,51.92
2024-03-05T07:08:52.711Z,43.95
2024-03-05T07:09:55.737Z,53.42
2024-03-05T07:10:57.363Z,50.20
2024-03-05T07:12:00.693Z,47.95
2024-03-05T07:13:02.487Z,43.85
2024-03-05T07:14:04.262Z,54.05
2024-03-05T07:15:10.257Z,43.88
2024-03-05T07:16:15.027Z,48.83
2024-03-05T07:17:17.759Z,59.88
2024-03-05T07:18:20.817Z,100.13
2024-03-05T07:19:22.464Z,48.15
2024-03-05T07:20:25.697Z,54.38
2024-03-05T07:21:29.509Z,45.47
2024-03-05T07:22:32.140Z,53.60
2024-03-05T07:23:33.818Z,68.40
2024-03-05T07:24:37.192Z,46.10
2024-03-05T07:25:39.678Z,50.17
2024-03-05T07:26:49.765Z,57.10
2024-03-05T07:27:58.586Z,73.65
2024-03-05T07:29:01.294Z,44.55
2024-03-05T07:30:05.076Z,47.28
2024-03-05T07:31:08.006Z,48.42
2024-03-05T07:32:11.347Z,43.47
2024-03-05T07:33:13.944Z,46.30
2024-03-05T07:34:17.030Z,46.53
2024-03-05T07:35:20.041Z,50.38
2024-03-05T07:36:21.746Z,51.00
2024-03-05T07:37:24.370Z,48.70
2024-03-05T07:38:26.139Z,54.25
2024-03-05T07:39:28.716Z,47.03
2024-03-05T07:40:30.700Z,54.45
2024-03-05T07:41:34.964Z,46.28
2024-03-05T07:42:41.505Z,61.53
2024-03-05T07:43:44.118Z,58.92
2024-03-05T07:44:45.760Z,56.45
2024-03-05T07:45:50.560Z,57.13
2024-03-05T07:46:52.560Z,44.85
2024-03-05T07:47:55.149Z,58.03
2024-03-05T07:48:56.999Z,50.15
2024-03-05T07:50:00.668Z,53.80
2024-03-05T07:51:03.284Z,49.53
2024-03-05T07:52:05.370Z,46.40
2024-03-05T07:53:08.264Z,66.35
2024-03-05T07:54:09.846Z,51.50
2024-03-05T07:55:14.575Z,49.83
2024-03-05T07:56:16.231Z,51.38
2024-03-05T07:57:18.805Z,50.42
2024-03-05T07:58:20.489Z,54.22
2024-03-05T07:59:23.074Z,52.85
2024-03-05T08:00:25.385Z,46.92
2024-03-05T08:01:27.969Z,56.35
2024-03-05T08:02:29.602Z,49.28
2024-03-05T08:03:32.148Z,54.35
2024-03-05T08:04:33.785Z,48.03
2024-03-05T08:05:37.703Z,58.08
2024-03-05T08:06:39.464Z,51.67
2024-03-05T08:07:42.090Z,60.50
2024-03-05T08:08:43.684Z,55.92
2024-03-05T08:09:45.291Z,55.97
2024-03-05T08:10:50.116Z,56.08
2024-03-05T08:11:52.224Z,54.88
2024-03-05T08:12:56.565Z,44.83
2024-03-05T08:13:58.637Z,56.40
2024-03-05T08:15:01.185Z,43.22
2024-03-05T08:16:05.349Z,50.97
2024-03-05T08:17:09.703Z,52.50
2024-03-05T08:18:13.860Z,52.83
2024-03-05T08:19:16.797Z,51.90
2024-03-05T08:20:19.435Z,56.58
2024-03-05T08:21:23.521Z,55.67
2024-03-05T08:22:25.156Z,58.97
2024-03-05T08:23:27.736Z,55.13
2024-03-05T08:24:29.671Z,51.40
2024-03-05T08:25:32.224Z,50.72
2024-03-05T08:26:33.920Z,53.10
2024-03-05T08:27:36.556Z,58.38
2024-03-05T08:28:38.200Z,54.60
2024-03-05T08:29:40.902Z,56.72
2024-03-05T08:30:43.656Z,53.65
2024-03-05T08:31:46.368Z,51.35
2024-03-05T08:32:48.029Z,57.95
2024-03-05T08:33:50.989Z,55.63
2024-03-05T08:34:53.127Z,53.50
2024-03-05T08:35:55.720Z,56.13
2024-03-05T08:36:58.735Z,51.58
2024-03-05T08:38:02.230Z,80.50
2024-03-05T08:39:05.827Z,59.47
2024-03-05T08:40:10.865Z,50.47
2024-03-05T08:41:12.505Z,55.85
2024-03-05T08:42:15.175Z,52.10
2024-03-05T08:43:16.835Z,49.50
2024-03-05T08:44:19.938Z,52.90
2024-03-05T08:45:22.223Z,56.90
2024-03-05T08:46:24.848Z,59.10
2024-03-05T08:47:26.527Z,51.70
2024-03-05T08:48:29.633Z,54.78
2024-03-05T08:49:31.300Z,53.88
2024-03-05T08:50:34.818Z,55.75
2024-03-05T08:51:39.050Z,59.67
2024-03-05T08:52:43.105Z,58.95
2024-03-05T08:53:44.756Z,67.72
2024-03-05T08:54:46.321Z,65.85
2024-03-05T08:55:49.416Z,62.13
2024-03-05T08:56:51.271Z,65.55
2024-03-05T08:57:54.759Z,65.40
2024-03-05T08:58:56.434Z,52.40
2024-03-05T09:00:13.125Z,59.85
2024-03-05T09:01:22.729Z,67.75
2024-03-05T09:02:25.421Z,50.33
2024-03-05T09:03:27.032Z,55.30
2024-03-05T09:04:29.915Z,53.08
2024-03-05T09:05:33.309Z,62.65
2024-03-05T09:06:35.868Z,59.88
2024-03-05T09:07:37.902Z,62.85
2024-03-05T09:08:42.859Z,58.55
2024-03-05T09:09:45.344Z,69.97
2024-03-05T09:10:48.156Z,67.55
2024-03-05T09:11:49.911Z,67.80
2024-03-05T09:12:52.920Z,67.97
2024-03-05T09:13:54.567Z,67.22
2024-03-05T09:14:57.346Z,55.78
2024-03-05T09:15:59.015Z,58.92
2024-03-05T09:17:02.019Z,59.90
2024-03-05T09:18:05.573Z,86.32
2024-03-05T09:19:08.160Z,67.60
2024-03-05T09:20:15.620Z,53.47
2024-03-05T09:21:20.018Z,58.63
2024-03-05T09:22:21.615Z,57.65
2024-03-05T09:23:24.246Z,66.53
2024-03-05T09:24:28.978Z,59.38
2024-03-05T09:25:32.161Z,61.15
2024-03-05T09:26:34.426Z,59.22
2024-03-05T09:27:38.793Z,63.63
2024-03-05T09:28:40.447Z,60.80
2024-03-05T09:29:44.479Z,63.22
2024-03-05T09:30:46.425Z,62.58
2024-03-05T09:31:49.474Z,69.28
2024-03-05T09:32:51.092Z,63.30
2024-03-05T09:33:54.424Z,59.85
2024-03-05T09:34:56.114Z,63.10
2024-03-05T09:35:59.436Z,57.05
2024-03-05T09:37:01.055Z,58.95
2024-03-05T09:38:03.829Z,85.57
2024-03-05T09:39:10.208Z,55.63
2024-03-05T09:40:18.739Z,60.10
2024-03-05T09:41:21.686Z,64.13
2024-03-05T09:42:24.384Z,59.35
2024-03-05T09:43:26.710Z,59.95
2024-03-05T09:44:29.868Z,59.30
2024-03-05T09:45:37.410Z,63.25
2024-03-05T09:46:40.885Z,62.63
2024-03-05T09:47:43.874Z,72.38
2024-03-05T09:48:46.662Z,69.38
2024-03-05T09:49:48.532Z,87.57
2024-03-05T09:50:50.205Z,74.57
2024-03-05T09:51:53.120Z,75.13
2024-03-05T09:52:54.913Z,71.20
2024-03-05T09:53:57.876Z,75.00
2024-03-05T09:55:00.916Z,68.75
2024-03-05T09:56:05.987Z,67.32
2024-03-05T09:57:07.806Z,63.35
2024-03-05T09:58:10.677Z,89.97
2024-03-05T09:59:15.938Z,62.00
2024-03-05T10:00:18.874Z,75.97
2024-03-05T10:01:22.264Z,69.13
2024-03-05T10:02:26.588Z,64.78
2024-03-05T10:03:31.272Z,73.47
2024-03-05T10:04:35.217Z,59.42
2024-03-05T10:05:38.470Z,65.85
2024-03-05T10:06:40.372Z,67.57
2024-03-05T10:07:42.990Z,65.78
2024-03-05T10:08:44.774Z,80.95
2024-03-05T10:09:47.649Z,78.60
2024-03-05T10:10:49.472Z,82.57
2024-03-05T10:11:53.459Z,67.65
2024-03-05T10:12:55.163Z,72.45
2024-03-05T10:14:04.652Z,70.65
2024-03-05T10:15:14.955Z,64.97
2024-03-05T10:16:17.409Z,84.65
2024-03-05T10:17:20.039Z,63.63
2024-03-05T10:18:30.683Z,67.70
2024-03-05T10:19:43.049Z,73.22
2024-03-05T10:20:44.758Z,69.25
2024-03-05T10:21:48.973Z,72.30
2024-03-05T10:22:51.850Z,74.88
2024-03-05T10:23:58.825Z,73.75
2024-03-05T10:25:03.867Z,65.57
2024-03-05T10:26:20.115Z,61.63
2024-03-05T10:27:28.727Z,65.05
2024-03-05T10:28:32.326Z,66.38
2024-03-05T10:29:34.790Z,55.60
2024-03-05T10:30:38.756Z,66.43
2024-03-05T10:31:41.681Z,65.90
2024-03-05T10:32:43.367Z,63.13
2024-03-05T10:33:47.607Z,68.63
2024-03-05T10:34:49.321Z,62.05
2024-03-05T10:35:52.176Z,70.47
2024-03-05T10:36:53.856Z,63.95
2024-03-05T10:38:01.146Z,79.72
2024-03-05T10:39:04.132Z,63.38
2024-03-05T10:40:09.659Z,59.30
2024-03-05T10:41:11.285Z,65.63
2024-03-05T10:42:14.122Z,65.78
2024-03-05T10:43:19.624Z,63.75
2024-03-05T10:44:22.752Z,67.40
2024-03-05T10:45:24.661Z,69.35
2024-03-05T10:46:28.998Z,63.17
2024-03-05T10:47:31.037Z,63.92
2024-03-05T10:48:32.891Z,58.05
2024-03-05T10:49:36.863Z,60.35
2024-03-05T10:50:41.077Z,63.30
2024-03-05T10:51:45.926Z,63.50
2024-03-05T10:52:48.763Z,57.85
2024-03-05T10:53:51.184Z,82.32
2024-03-05T10:54:55.259Z,64.43
2024-03-05T10:55:56.905Z,68.60
2024-03-05T10:56:59.715Z,71.28
2024-03-05T10:58:20.714Z,87.97
2024-03-05T10:59:41.207Z,59.90
2024-03-05T11:00:47.264Z,63.17
2024-03-05T11:01:49.253Z,71.13
2024-03-05T11:02:51.816Z,75.72
2024-03-05T11:03:56.296Z,83.68
2024-03-05T11:04:58.618Z,91.22
2024-03-05T11:06:01.953Z,72.72
2024-03-05T11:07:06.589Z,68.72
2024-03-05T11:08:13.294Z,100.47
2024-03-05T11:09:20.771Z,64.75
2024-03-05T11:10:25.529Z,73.50
2024-03-05T11:11:27.787Z,75.72
2024-03-05T11:12:31.678Z,74.07
2024-03-05T11:13:34.722Z,74.38
2024-03-05T11:14:39.051Z,84.15
2024-03-05T11:15:40.804Z,73.00
2024-03-05T11:16:48.162Z,84.90
2024-03-05T11:17:50.674Z,88.88
2024-03-05T11:18:53.318Z,85.20
2024-03-05T11:19:56.015Z,74.10
2024-03-05T11:20:58.651Z,99.47
2024-03-05T11:22:00.217Z,87.90
2024-03-05T11:23:06.150Z,74.10
2024-03-05T11:24:08.118Z,66.40
2024-03-05T11:25:31.670Z,79.30
2024-03-05T11:26:34.829Z,67.25
2024-03-05T11:27:37.405Z,77.28
2024-03-05T11:28:39.611Z,71.15
2024-03-05T11:29:43.939Z,67.00
2024-03-05T11:30:45.580Z,66.25
2024-03-05T11:31:48.560Z,87.15
2024-03-05T11:32:52.200Z,71.28
2024-03-05T11:34:04.114Z,81.43
2024-03-05T11:35:09.104Z,66.15
2024-03-05T11:36:23.189Z,65.72
2024-03-05T11:37:24.898Z,64.97
2024-03-05T11:38:27.832Z,75.07
2024-03-05T11:39:29.686Z,62.60
2024-03-05T11:40:34.299Z,69.35
2024-03-05T11:41:38.419Z,65.20
2024-03-05T11:42:46.142Z,71.32
2024-03-05T11:43:47.743Z,82.72
2024-03-05T11:44:55.540Z,80.70
2024-03-05T11:45:57.736Z,71.28
2024-03-05T11:47:00.325Z,82.13
2024-03-05T11:48:03.075Z,110.50
2024-03-05T11:49:05.913Z,62.38
2024-03-05T11:50:09.217Z,75.75
2024-03-05T11:51:11.592Z,70.85
2024-03-05T11:52:16.810Z,73.82
2024-03-05T11:53:18.701Z,76.25
2024-03-05T11:54:25.009Z,66.60
2024-03-05T11:55:29.306Z,65.00
2024-03-05T11:56:32.864Z,78.28
2024-03-05T11:57:34.534Z,64.28
2024-03-05T11:58:38.918Z,78.80
2024-03-05T11:59:40.990Z,70.70
2024-03-05T12:00:46.148Z,64.70
2024-03-05T12:01:48.105Z,71.90
2024-03-05T12:02:53.352Z,66.13
2024-03-05T12:04:04.837Z,69.97
2024-03-05T12:05:09.256Z,67.68
2024-03-05T12:06:13.478Z,57.83
2024-03-05T12:07:15.292Z,63.63
2024-03-05T12:08:24.519Z,72.82
2024-03-05T12:09:26.247Z,59.85
2024-03-05T12:10:32.334Z,59.78
2024-03-05T12:11:34.190Z,64.82
2024-03-05T12:12:37.227Z,58.65
2024-03-05T12:13:38.941Z,75.82
2024-03-05T12:14:54.326Z,61.22
2024-03-05T12:16:08.394Z,63.45
2024-03-05T12:17:13.950Z,66.63
2024-03-05T12:18:18.252Z,61.47
2024-03-05T12:19:21.096Z,80.18
2024-03-05T12:20:24.010Z,60.53
2024-03-05T12:21:27.916Z,60.40
2024-03-05T12:22:30.246Z,73.00
2024-03-05T12:23:41.658Z,61.15
2024-03-05T12:24:44.960Z,58.60
2024-03-05T12:25:48.236Z,64.80
2024-03-05T12:26:49.942Z,63.70
2024-03-05T12:27:52.796Z,67.47
2024-03-05T12:28:54.569Z,73.25
2024-03-05T12:30:01.411Z,73.90
2024-03-05T12:31:04.751Z,74.63
2024-03-05T12:32:09.936Z,59.72
2024-03-05T12:33:11.598Z,60.03
2024-03-05T12:34:14.121Z,58.78
2024-03-05T12:35:19.276Z,71.18
2024-03-05T12:36:21.138Z,56.55
2024-03-05T12:37:26.339Z,63.85
2024-03-05T12:38:32.611Z,64.65
2024-03-05T12:39:35.229Z,57.92
2024-03-05T12:40:36.923Z,76.80
2024-03-05T12:41:41.861Z,65.95
2024-03-05T12:42:45.918Z,67.25
2024-03-05T12:43:55.386Z,77.93
2024-03-05T12:45:06.739Z,70.60
2024-03-05T12:46:12.752Z,60.63
2024-03-05T12:47:17.507Z,76.15
2024-03-05T12:48:27.604Z,59.50
2024-03-05T12:49:30.893Z,59.80
2024-03-05T12:50:33.786Z,75.65
2024-03-05T12:51:35.464Z,60.15
2024-03-05T12:52:38.540Z,69.35
2024-03-05T12:53:42.122Z,70.55
2024-03-05T12:54:43.922Z,61.40
2024-03-05T12:55:46.598Z,62.92
2024-03-05T12:56:48.327Z,73.60
2024-03-05T12:57:50.985Z,73.18
2024-03-05T12:58:52.861Z,83.35
2024-03-05T12:59:55.682Z,68.43
2024-03-05T13:00:57.290Z,71.53
2024-03-05T13:02:01.373Z,69.40
2024-03-05T13:03:05.361Z,67.65
2024-03-05T13:04:07.986Z,67.68
2024-03-05T13:05:10.105Z,73.10
2024-03-05T13:06:13.068Z,61.67
2024-03-05T13:07:14.704Z,64.00
2024-03-05T13:08:17.324Z,73.70
2024-03-05T13:09:21.097Z,83.25
2024-03-05T13:10:23.755Z,64.38
2024-03-05T13:11:25.472Z,70.95
2024-03-05T13:12:30.273Z,64.45
2024-03-05T13:13:32.036Z,66.28
2024-03-05T13:14:34.753Z,67.68
2024-03-05T13:15:36.429Z,58.97
2024-03-05T13:16:38.173Z,63.50
2024-03-05T13:17:42.278Z,69.05
2024-03-05T13:18:43.905Z,59.90
2024-03-05T13:19:46.745Z,88.50
2024-03-05T13:20:48.424Z,62.35
2024-03-05T13:21:51.158Z,64.53
2024-03-05T13:22:55.000Z,75.05
2024-03-05T13:23:57.206Z,70.28
2024-03-05T13:24:59.763Z,71.95
2024-03-05T13:26:01.492Z,68.30
2024-03-05T13:27:05.134Z,66.45
2024-03-05T13:28:07.025Z,103.28
2024-03-05T13:29:11.944Z,62.42
2024-03-05T13:30:17.596Z,64.60
2024-03-05T13:31:20.223Z,61.63
2024-03-05T13:32:22.983Z,64.65
2024-03-05T13:33:27.554Z,63.97
2024-03-05T13:34:29.282Z,62.28
2024-03-05T13:35:32.496Z,64.30
2024-03-05T13:36:35.329Z,57.90